createdAt,value
2019-04-01T00:00:53.566Z,0.00
2019-04-01T00:01:53.583Z,0.00
2019-04-01T00:02:53.579Z,0.00
2019-04-01T00:03:53.539Z,0.00
2019-04-01T00:04:53.529Z,0.00
2019-04-01T00:05:53.513Z,0.00
2019-04-01T00:06:53.524Z,0.00
2019-04-01T00:07:53.488Z,0.00
2019-04-01T00:08:53.483Z,0.00
2019-04-01T00:09:53.466Z,0.00
2019-04-01T00:10:53.455Z,0.00
2019-04-01T00:11:53.472Z,0.00
2019-04-01T00:12:53.434Z,0.00
2019-04-01T00:13:53.422Z,0.00
2019-04-01T00:14:53.412Z,0.00
2019-04-01T00:15:53.406Z,0.00
2019-04-01T00:16:53.416Z,0.00
2019-04-01T00:17:53.385Z,0.00
2019-04-01T00:19:03.031Z,0.00
2019-04-01T00:19:54.356Z,0.00
2019-04-01T00:20:53.346Z,0.00
2019-04-01T00:21:53.362Z,0.00
2019-04-01T00:22:53.437Z,0.00
2019-04-01T00:23:53.313Z,0.00
2019-04-01T00:24:53.320Z,0.00
2019-04-01T00:25:53.295Z,0.00
2019-04-01T00:26:53.306Z,0.00
2019-04-01T00:27:53.273Z,0.00
2019-04-01T00:28:53.259Z,0.00
2019-04-01T00:29:53.249Z,0.00
2019-04-01T00:30:53.233Z,0.00
2019-04-01T00:31:53.253Z,0.00
2019-04-01T00:32:53.217Z,0.00
2019-04-01T00:33:53.201Z,0.00
2019-04-01T00:34:53.191Z,0.00
2019-04-01T00:35:53.179Z,0.00
2019-04-01T00:36:53.194Z,0.00
2019-04-01T00:37:53.155Z,0.00
2019-04-01T00:38:53.155Z,0.00
2019-04-01T00:39:53.132Z,0.00
2019-04-01T00:40:53.121Z,0.00
2019-04-01T00:41:53.136Z,0.00
2019-04-01T00:42:53.097Z,0.00
2019-04-01T00:43:53.090Z,0.00
2019-04-01T00:44:53.078Z,0.00
2019-04-01T00:45:53.073Z,0.00
2019-04-01T00:46:53.069Z,0.00
2019-04-01T00:47:53.072Z,0.00
2019-04-01T00:48:53.035Z,0.00
2019-04-01T00:49:53.022Z,0.00
2019-04-01T00:50:53.020Z,0.00
2019-04-01T00:51:53.000Z,0.00
2019-04-01T00:52:53.118Z,0.00
2019-04-01T00:53:52.981Z,0.00
2019-04-01T00:54:52.968Z,0.00
2019-04-01T00:55:52.957Z,0.00
2019-04-01T00:56:52.945Z,0.00
2019-04-01T00:57:52.970Z,0.00
2019-04-01T00:58:52.924Z,0.00
2019-04-01T00:59:52.912Z,0.00
2019-04-01T01:00:52.902Z,0.00
2019-04-01T01:01:52.891Z,0.00
2019-04-01T01:02:52.909Z,0.00
2019-04-01T01:03:52.870Z,0.00
2019-04-01T01:04:52.857Z,0.00
2019-04-01T01:05:52.848Z,0.00
2019-04-01T01:06:52.838Z,0.00
2019-04-01T01:07:52.851Z,0.00
2019-04-01T01:08:52.811Z,0.00
2019-04-01T01:09:52.800Z,0.00
2019-04-01T01:10:52.789Z,0.00
2019-04-01T01:11:52.782Z,0.00
2019-04-01T01:12:52.795Z,0.00
2019-04-01T01:13:52.763Z,0.00
2019-04-01T01:14:52.745Z,0.00
2019-04-01T01:15:52.739Z,0.00
2019-04-01T01:16:52.724Z,0.00
2019-04-01T01:17:52.739Z,0.00
2019-04-01T01:18:52.701Z,0.00
2019-04-01T01:19:52.691Z,0.00
2019-04-01T01:20:52.683Z,0.00
2019-04-01T01:21:52.674Z,0.00
2019-04-01T01:22:52.684Z,0.00
2019-04-01T01:23:52.648Z,0.00
2019-04-01T01:24:52.635Z,0.00
2019-04-01T01:25:52.624Z,0.00
2019-04-01T01:26:52.616Z,0.00
2019-04-01T01:27:52.603Z,0.00
2019-04-01T01:28:52.617Z,0.00
2019-04-01T01:29:52.581Z,0.00
2019-04-01T01:30:52.571Z,0.00
2019-04-01T01:31:52.557Z,0.00
2019-04-01T01:32:52.548Z,0.00
2019-04-01T01:33:52.562Z,0.00
2019-04-01T01:34:52.522Z,0.00
2019-04-01T01:35:52.516Z,0.00
2019-04-01T01:36:52.501Z,0.00
2019-04-01T01:37:52.490Z,0.00
2019-04-01T01:38:52.504Z,0.00
2019-04-01T01:39:52.469Z,0.00
2019-04-01T01:40:52.461Z,0.00
2019-04-01T01:41:52.445Z,0.00
2019-04-01T01:42:52.437Z,0.00
2019-04-01T01:43:52.450Z,0.00
2019-04-01T01:44:52.418Z,0.00
2019-04-01T01:45:52.405Z,0.00
2019-04-01T01:46:52.390Z,0.00
2019-04-01T01:47:52.382Z,0.00
2019-04-01T01:48:52.394Z,0.00
2019-04-01T01:49:52.361Z,0.00
2019-04-01T01:50:52.346Z,0.00
2019-04-01T01:51:52.335Z,0.00
2019-04-01T01:52:52.326Z,0.00
2019-04-01T01:53:52.339Z,0.00
2019-04-01T01:54:52.301Z,0.00
2019-04-01T01:55:52.292Z,0.00
2019-04-01T01:56:52.283Z,0.00
2019-04-01T01:57:52.273Z,0.00
2019-04-01T01:58:52.283Z,0.00
2019-04-01T01:59:52.247Z,0.00
2019-04-01T02:00:52.235Z,0.00
2019-04-01T02:01:52.227Z,0.00
2019-04-01T02:02:52.218Z,0.00
2019-04-01T02:03:52.230Z,0.00
2019-04-01T02:04:52.193Z,0.00
2019-04-01T02:05:52.182Z,0.00
2019-04-01T02:06:52.180Z,0.00
2019-04-01T02:07:52.160Z,0.00
2019-04-01T02:08:52.173Z,0.00
2019-04-01T02:09:52.138Z,0.00
2019-04-01T02:10:52.132Z,0.00
2019-04-01T02:11:52.119Z,0.00
2019-04-01T02:12:52.104Z,0.00
2019-04-01T02:13:52.119Z,0.00
2019-04-01T02:14:52.084Z,0.00
2019-04-01T02:15:52.072Z,0.00
2019-04-01T02:16:52.059Z,0.00
2019-04-01T02:17:52.048Z,0.00
2019-04-01T02:18:52.049Z,0.00
2019-04-01T02:19:52.051Z,0.00
2019-04-01T02:20:52.013Z,0.00
2019-04-01T02:21:52.003Z,0.00
2019-04-01T02:22:51.999Z,0.00
2019-04-01T02:23:51.988Z,0.00
2019-04-01T02:24:52.000Z,0.00
2019-04-01T02:25:51.961Z,0.00
2019-04-01T02:26:51.950Z,0.00
2019-04-01T02:27:51.940Z,0.00
2019-04-01T02:28:51.934Z,0.00
2019-04-01T02:29:51.941Z,0.00
2019-04-01T02:30:51.904Z,0.00
2019-04-01T02:31:51.898Z,0.00
2019-04-01T02:32:51.888Z,0.00
2019-04-01T02:33:51.879Z,0.00
2019-04-01T02:34:51.889Z,0.00
2019-04-01T02:35:51.852Z,0.00
2019-04-01T02:36:51.849Z,0.00
2019-04-01T02:37:51.828Z,0.00
2019-04-01T02:38:51.820Z,0.00
2019-04-01T02:39:51.841Z,0.00
2019-04-01T02:40:51.796Z,0.00
2019-04-01T02:41:51.782Z,0.00
2019-04-01T02:42:51.897Z,0.00
2019-04-01T02:43:51.762Z,0.00
2019-04-01T02:44:51.776Z,0.00
2019-04-01T02:45:51.746Z,0.00
2019-04-01T02:46:51.729Z,0.00
2019-04-01T02:47:51.717Z,0.00
2019-04-01T02:48:51.710Z,0.00
2019-04-01T02:49:51.724Z,0.00
2019-04-01T02:50:51.685Z,0.00
2019-04-01T02:51:51.674Z,0.00
2019-04-01T02:52:51.658Z,0.00
2019-04-01T02:53:51.662Z,0.00
2019-04-01T02:54:51.668Z,0.00
2019-04-01T02:55:51.628Z,0.00
2019-04-01T02:56:51.613Z,0.00
2019-04-01T02:57:51.601Z,0.00
2019-04-01T02:58:51.590Z,0.00
2019-04-01T02:59:51.609Z,0.00
2019-04-01T03:00:51.578Z,0.00
2019-04-01T03:01:51.562Z,0.00
2019-04-01T03:02:51.547Z,0.00
2019-04-01T03:03:51.541Z,0.00
2019-04-01T03:04:51.552Z,0.00
2019-04-01T03:05:51.510Z,0.00
2019-04-01T03:06:51.501Z,0.00
2019-04-01T03:07:51.489Z,0.00
2019-04-01T03:08:51.488Z,0.00
2019-04-01T03:09:51.471Z,0.00
2019-04-01T03:10:51.482Z,0.00
2019-04-01T03:11:51.446Z,0.00
2019-04-01T03:12:51.443Z,0.00
2019-04-01T03:13:51.430Z,0.00
2019-04-01T03:14:51.423Z,0.00
2019-04-01T03:15:51.425Z,0.00
2019-04-01T03:16:51.388Z,0.00
2019-04-01T03:17:51.382Z,0.00
2019-04-01T03:18:51.366Z,0.00
2019-04-01T03:19:51.358Z,0.00
2019-04-01T03:20:51.393Z,0.00
2019-04-01T03:21:51.337Z,0.00
2019-04-01T03:22:51.320Z,0.00
2019-04-01T03:23:51.308Z,0.00
2019-04-01T03:24:51.296Z,0.00
2019-04-01T03:25:51.322Z,0.00
2019-04-01T03:26:51.315Z,0.00
2019-04-01T03:27:51.265Z,0.00
2019-04-01T03:28:51.253Z,0.00
2019-04-01T03:29:51.263Z,0.00
2019-04-01T03:30:51.270Z,0.00
2019-04-01T03:31:51.220Z,0.00
2019-04-01T03:32:51.210Z,0.00
2019-04-01T03:33:51.196Z,0.00
2019-04-01T03:34:51.190Z,0.00
2019-04-01T03:35:51.198Z,0.00
2019-04-01T03:36:51.168Z,0.00
2019-04-01T03:37:51.151Z,0.00
2019-04-01T03:38:51.201Z,0.00
2019-04-01T03:39:51.129Z,0.00
2019-04-01T03:40:51.145Z,0.00
2019-04-01T03:41:51.142Z,0.00
2019-04-01T03:42:51.099Z,0.00
2019-04-01T03:43:51.088Z,0.00
2019-04-01T03:44:54.802Z,0.00
2019-04-01T03:45:51.087Z,0.00
2019-04-01T03:46:51.049Z,0.00
2019-04-01T03:47:51.039Z,0.00
2019-04-01T03:48:51.028Z,0.00
2019-04-01T03:49:51.027Z,0.00
2019-04-01T03:50:51.032Z,0.00
2019-04-01T03:51:50.992Z,0.00
2019-04-01T03:52:50.981Z,0.00
2019-04-01T03:53:50.973Z,0.00
2019-04-01T03:54:50.975Z,0.00
2019-04-01T03:55:50.960Z,0.00
2019-04-01T03:56:50.964Z,0.00
2019-04-01T03:57:50.928Z,0.00
2019-04-01T03:58:50.915Z,0.00
2019-04-01T03:59:50.904Z,0.00
2019-04-01T04:00:50.892Z,0.00
2019-04-01T04:01:50.911Z,0.00
2019-04-01T04:02:50.875Z,0.00
2019-04-01T04:03:50.858Z,0.00
2019-04-01T04:04:50.851Z,0.00
2019-04-01T04:05:50.835Z,0.00
2019-04-01T04:06:50.853Z,0.00
2019-04-01T04:07:50.813Z,0.00
2019-04-01T04:08:50.802Z,0.00
2019-04-01T04:09:50.801Z,0.00
2019-04-01T04:10:50.779Z,0.00
2019-04-01T04:11:50.798Z,0.00
2019-04-01T04:12:50.761Z,0.00
2019-04-01T04:13:50.748Z,0.00
2019-04-01T04:14:51.372Z,0.00
2019-04-01T04:15:50.724Z,0.00
2019-04-01T04:16:50.738Z,0.00
2019-04-01T04:17:50.700Z,0.00
2019-04-01T04:18:50.689Z,0.00
2019-04-01T04:19:50.679Z,0.00
2019-04-01T04:20:50.669Z,0.00
2019-04-01T04:21:50.685Z,0.00
2019-04-01T04:22:50.648Z,0.00
2019-04-01T04:23:50.649Z,0.00
2019-04-01T04:24:50.625Z,0.00
2019-04-01T04:25:50.616Z,0.00
2019-04-01T04:26:50.641Z,0.00
2019-04-01T04:27:50.588Z,0.00
2019-04-01T04:28:50.580Z,0.00
2019-04-01T04:29:50.577Z,0.00
2019-04-01T04:30:50.559Z,0.00
2019-04-01T04:31:50.568Z,0.00
2019-04-01T04:32:50.543Z,0.00
2019-04-01T04:33:50.521Z,0.00
2019-04-01T04:34:50.516Z,0.00
2019-04-01T04:35:50.505Z,0.00
2019-04-01T04:36:50.513Z,0.00
2019-04-01T04:37:50.475Z,0.00
2019-04-01T04:38:50.467Z,0.00
2019-04-01T04:39:50.457Z,0.00
2019-04-01T04:40:50.448Z,0.00
2019-04-01T04:41:50.437Z,0.00
2019-04-01T04:42:50.451Z,0.00
2019-04-01T04:43:50.409Z,0.00
2019-04-01T04:44:50.398Z,0.00
2019-04-01T04:45:50.387Z,0.00
2019-04-01T04:46:50.381Z,0.00
2019-04-01T04:47:50.390Z,0.00
2019-04-01T04:48:50.354Z,0.00
2019-04-01T04:49:50.350Z,0.00
2019-04-01T04:50:50.332Z,0.00
2019-04-01T04:51:50.320Z,0.00
2019-04-01T04:52:50.339Z,0.00
2019-04-01T04:53:50.368Z,0.00
2019-04-01T04:54:50.290Z,0.00
2019-04-01T04:55:50.275Z,0.00
2019-04-01T04:56:50.263Z,0.00
2019-04-01T04:57:50.278Z,0.00
2019-04-01T04:58:50.241Z,0.00
2019-04-01T04:59:50.229Z,0.00
2019-04-01T05:00:50.219Z,0.00
2019-04-01T05:01:50.211Z,0.00
2019-04-01T05:02:50.248Z,0.00
2019-04-01T05:03:50.197Z,0.00
2019-04-01T05:04:50.178Z,0.00
2019-04-01T05:05:50.170Z,0.00
2019-04-01T05:06:50.158Z,0.00
2019-04-01T05:07:50.167Z,0.00
2019-04-01T05:08:50.142Z,0.00
2019-04-01T05:09:50.123Z,0.00
2019-04-01T05:10:50.109Z,0.00
2019-04-01T05:11:50.095Z,0.00
2019-04-01T05:12:50.111Z,0.00
2019-04-01T05:13:50.075Z,0.00
2019-04-01T05:14:50.063Z,0.00
2019-04-01T05:15:50.051Z,0.00
2019-04-01T05:16:50.042Z,0.00
2019-04-01T05:17:50.059Z,0.00
2019-04-01T05:18:50.019Z,0.00
2019-04-01T05:19:50.007Z,0.00
2019-04-01T05:20:49.996Z,0.00
2019-04-01T05:21:49.990Z,0.00
2019-04-01T05:22:50.002Z,0.00
2019-04-01T05:23:49.964Z,0.00
2019-04-01T05:24:49.949Z,0.00
2019-04-01T05:25:49.938Z,0.00
2019-04-01T05:26:49.928Z,5.62
2019-04-01T05:27:49.943Z,5.62
2019-04-01T05:28:49.904Z,5.62
2019-04-01T05:29:49.895Z,5.62
2019-04-01T05:30:49.882Z,5.62
2019-04-01T05:31:49.871Z,5.62
2019-04-01T05:32:49.869Z,5.62
2019-04-01T05:33:55.589Z,5.62
2019-04-01T05:34:50.840Z,5.62
2019-04-01T05:35:49.829Z,5.62
2019-04-01T05:36:49.815Z,5.62
2019-04-01T05:37:49.808Z,5.62
2019-04-01T05:38:49.820Z,5.62
2019-04-01T05:39:49.783Z,5.62
2019-04-01T05:40:49.771Z,5.62
2019-04-01T05:41:49.762Z,5.62
2019-04-01T05:42:49.750Z,5.62
2019-04-01T05:43:49.770Z,5.62
2019-04-01T05:44:49.728Z,5.62
2019-04-01T05:45:49.714Z,5.62
2019-04-01T05:46:49.704Z,11.25
2019-04-01T05:47:49.696Z,11.25
2019-04-01T05:48:49.711Z,11.25
2019-04-01T05:49:49.670Z,11.25
2019-04-01T05:50:49.669Z,11.25
2019-04-01T05:51:49.648Z,11.25
2019-04-01T05:52:49.641Z,11.25
2019-04-01T05:53:49.658Z,11.25
2019-04-01T05:54:49.615Z,11.25
2019-04-01T05:55:49.604Z,11.25
2019-04-01T05:56:49.595Z,11.25
2019-04-01T05:57:49.581Z,11.25
2019-04-01T05:58:49.596Z,11.25
2019-04-01T05:59:49.558Z,16.88
2019-04-01T06:00:49.547Z,16.88
2019-04-01T06:01:49.541Z,16.88
2019-04-01T06:02:49.523Z,16.88
2019-04-01T06:03:49.541Z,16.88
2019-04-01T06:04:49.505Z,16.88
2019-04-01T06:05:49.490Z,16.88
2019-04-01T06:06:49.480Z,16.88
2019-04-01T06:07:49.468Z,16.88
2019-04-01T06:08:49.484Z,16.88
2019-04-01T06:09:49.446Z,16.88
2019-04-01T06:10:49.435Z,16.88
2019-04-01T06:11:49.424Z,16.88
2019-04-01T06:12:49.412Z,16.88
2019-04-01T06:13:49.427Z,16.88
2019-04-01T06:14:49.393Z,16.88
2019-04-01T06:15:49.378Z,16.88
2019-04-01T06:16:49.376Z,22.50
2019-04-01T06:17:49.361Z,22.50
2019-04-01T06:18:49.428Z,22.50
2019-04-01T06:19:49.335Z,22.50
2019-04-01T06:20:49.330Z,22.50
2019-04-01T06:21:49.312Z,22.50
2019-04-01T06:22:49.302Z,22.50
2019-04-01T06:23:49.324Z,22.50
2019-04-01T06:24:49.279Z,22.50
2019-04-01T06:25:49.266Z,22.50
2019-04-01T06:26:49.264Z,22.50
2019-04-01T06:27:49.244Z,22.50
2019-04-01T06:28:49.238Z,22.50
2019-04-01T06:29:49.247Z,22.50
2019-04-01T06:30:49.210Z,22.50
2019-04-01T06:31:49.200Z,28.12
2019-04-01T06:32:49.285Z,28.12
2019-04-01T06:33:49.180Z,28.12
2019-04-01T06:34:52.926Z,22.50
2019-04-01T06:35:49.154Z,28.12
2019-04-01T06:36:49.144Z,28.12
2019-04-01T06:37:49.132Z,22.50
2019-04-01T06:38:49.120Z,22.50
2019-04-01T06:39:49.134Z,22.50
2019-04-01T06:40:49.106Z,16.88
2019-04-01T06:41:49.088Z,22.50
2019-04-01T06:42:49.080Z,22.50
2019-04-01T06:43:49.066Z,22.50
2019-04-01T06:44:49.080Z,22.50
2019-04-01T06:45:49.041Z,22.50
2019-04-01T06:46:49.032Z,22.50
2019-04-01T06:47:49.020Z,22.50
2019-04-01T06:48:49.010Z,22.50
2019-04-01T06:49:49.024Z,22.50
2019-04-01T06:50:48.985Z,22.50
2019-04-01T06:51:48.977Z,22.50
2019-04-01T06:52:48.967Z,22.50
2019-04-01T06:53:48.957Z,28.12
2019-04-01T06:54:48.968Z,22.50
2019-04-01T06:55:48.929Z,28.12
2019-04-01T06:56:48.921Z,33.75
2019-04-01T06:57:48.914Z,33.75
2019-04-01T06:58:48.897Z,33.75
2019-04-01T06:59:48.912Z,28.12
2019-04-01T07:00:48.888Z,33.75
2019-04-01T07:01:48.870Z,33.75
2019-04-01T07:02:48.852Z,33.75
2019-04-01T07:03:48.842Z,28.12
2019-04-01T07:04:48.856Z,33.75
2019-04-01T07:05:48.827Z,33.75
2019-04-01T07:06:48.835Z,33.75
2019-04-01T07:09:50.624Z,33.75
2019-04-01T07:10:47.971Z,39.38
2019-04-01T07:11:47.951Z,39.38
2019-04-01T07:12:47.940Z,39.38
2019-04-01T07:13:47.930Z,33.75
2019-04-01T07:14:47.945Z,39.38
2019-04-01T07:15:47.931Z,33.75
2019-04-01T07:16:47.897Z,33.75
2019-04-01T07:17:47.889Z,39.38
2019-04-01T07:18:47.876Z,33.75
2019-04-01T07:19:47.882Z,33.75
2019-04-01T07:20:47.877Z,39.38
2019-04-01T07:21:47.843Z,39.38
2019-04-01T07:22:47.845Z,39.38
2019-04-01T07:23:47.827Z,39.38
2019-04-01T07:24:47.811Z,39.38
2019-04-01T07:25:47.829Z,39.38
2019-04-01T07:26:47.796Z,39.38
2019-04-01T07:27:47.784Z,39.38
2019-04-01T07:28:47.796Z,39.38
2019-04-01T07:29:47.760Z,39.38
2019-04-01T07:30:47.771Z,39.38
2019-04-01T07:31:47.735Z,39.38
2019-04-01T07:32:47.726Z,39.38
2019-04-01T07:33:47.713Z,39.38
2019-04-01T07:34:47.728Z,39.38
2019-04-01T07:35:47.715Z,39.38
2019-04-01T07:36:47.682Z,39.38
2019-04-01T07:37:47.676Z,39.38
2019-04-01T07:38:47.659Z,39.38
2019-04-01T07:39:47.647Z,39.38
2019-04-01T07:40:47.662Z,39.38
2019-04-01T07:41:47.626Z,39.38
2019-04-01T07:42:47.711Z,39.38
2019-04-01T07:43:47.602Z,39.38
2019-04-01T07:44:47.591Z,39.38
2019-04-01T07:45:47.680Z,39.38
2019-04-01T07:46:47.567Z,39.38
2019-04-01T07:47:47.610Z,39.38
2019-04-01T07:48:47.568Z,39.38
2019-04-01T07:49:47.556Z,45.00
2019-04-01T07:50:47.549Z,45.00
2019-04-01T07:51:47.513Z,39.38
2019-04-01T07:52:47.504Z,45.00
2019-04-01T07:53:47.497Z,45.00
2019-04-01T07:54:47.481Z,39.38
2019-04-01T07:55:47.492Z,45.00
2019-04-01T07:56:47.476Z,45.00
2019-04-01T07:57:47.446Z,45.00
2019-04-01T07:58:47.433Z,45.00
2019-04-01T07:59:47.425Z,45.00
2019-04-01T08:00:47.435Z,45.00
2019-04-01T08:01:47.401Z,45.00
2019-04-01T08:02:48.994Z,45.00
2019-04-01T08:03:47.380Z,45.00
2019-04-01T08:04:47.367Z,45.00
2019-04-01T08:05:47.390Z,45.00
2019-04-01T08:06:47.380Z,45.00
2019-04-01T08:07:47.336Z,45.00
2019-04-01T08:08:47.348Z,45.00
2019-04-01T08:09:47.313Z,45.00
2019-04-01T08:10:47.305Z,45.00
2019-04-01T08:11:50.025Z,45.00
2019-04-01T08:12:47.279Z,45.00
2019-04-01T08:13:47.266Z,45.00
2019-04-01T08:14:47.261Z,45.00
2019-04-01T08:15:47.245Z,45.00
2019-04-01T08:16:47.258Z,45.00
2019-04-01T08:17:47.224Z,45.00
2019-04-01T08:18:47.211Z,45.00
2019-04-01T08:19:47.208Z,45.00
2019-04-01T08:20:47.204Z,45.00
2019-04-01T08:21:47.204Z,45.00
2019-04-01T08:22:47.166Z,45.00
2019-04-01T08:23:47.185Z,45.00
2019-04-01T08:24:47.145Z,50.62
2019-04-01T08:25:48.074Z,50.62
2019-04-01T08:26:47.157Z,50.62
2019-04-01T08:27:47.117Z,50.62
2019-04-01T08:28:47.101Z,50.62
2019-04-01T08:29:47.091Z,50.62
2019-04-01T08:30:47.083Z,50.62
2019-04-01T08:31:47.091Z,50.62
2019-04-01T08:32:47.076Z,50.62
2019-04-01T08:33:50.150Z,50.62
2019-04-01T08:34:47.035Z,50.62
2019-04-01T08:35:47.024Z,50.62
2019-04-01T08:36:47.035Z,50.62
2019-04-01T08:37:46.999Z,50.62
2019-04-01T08:38:47.011Z,50.62
2019-04-01T08:39:46.978Z,50.62
2019-04-01T08:40:46.969Z,50.62
2019-04-01T08:41:46.977Z,50.62
2019-04-01T08:42:48.962Z,50.62
2019-04-01T08:43:46.939Z,50.62
2019-04-01T08:44:46.954Z,50.62
2019-04-01T08:45:46.915Z,50.62
2019-04-01T08:46:46.925Z,50.62
2019-04-01T08:47:46.890Z,50.62
2019-04-01T08:48:46.883Z,50.62
2019-04-01T08:49:46.872Z,50.62
2019-04-01T08:50:46.857Z,50.62
2019-04-01T08:51:46.844Z,50.62
2019-04-01T08:52:46.855Z,50.62
2019-04-01T08:53:46.833Z,50.62
2019-04-01T08:54:46.829Z,50.62
2019-04-01T08:55:46.798Z,50.62
2019-04-01T08:56:46.794Z,50.62
2019-04-01T08:57:46.799Z,50.62
2019-04-01T08:58:46.765Z,50.62
2019-04-01T08:59:46.756Z,50.62
2019-04-01T09:00:46.748Z,50.62
2019-04-01T09:01:46.734Z,50.62
2019-04-01T09:02:46.744Z,56.25
2019-04-01T09:03:46.711Z,56.25
2019-04-01T09:04:46.698Z,56.25
2019-04-01T09:05:46.701Z,56.25
2019-04-01T09:06:46.703Z,56.25
2019-04-01T09:07:46.688Z,61.88
2019-04-01T09:08:46.654Z,61.88
2019-04-01T09:09:46.643Z,61.88
2019-04-01T09:10:46.631Z,61.88
2019-04-01T09:11:46.623Z,61.88
2019-04-01T09:12:46.652Z,67.50
2019-04-01T09:13:46.599Z,67.50
2019-04-01T09:14:46.588Z,67.50
2019-04-01T09:15:46.579Z,67.50
2019-04-01T09:16:46.565Z,73.12
2019-04-01T09:17:46.579Z,73.12
2019-04-01T09:18:46.574Z,73.12
2019-04-01T09:19:46.544Z,73.12
2019-04-01T09:20:46.521Z,78.75
2019-04-01T09:21:46.512Z,78.75
2019-04-01T09:22:46.531Z,78.75
2019-04-01T09:23:46.489Z,78.75
2019-04-01T09:24:46.487Z,84.38
2019-04-01T09:25:46.475Z,84.38
2019-04-01T09:26:46.455Z,84.38
2019-04-01T09:27:46.475Z,84.38
2019-04-01T09:28:46.431Z,84.38
2019-04-01T09:29:46.419Z,95.62
2019-04-01T09:30:46.410Z,84.38
2019-04-01T09:31:46.414Z,90.00
2019-04-01T09:32:46.415Z,90.00
2019-04-01T09:33:46.379Z,90.00
2019-04-01T09:34:46.363Z,90.00
2019-04-01T09:35:46.363Z,95.62
2019-04-01T09:36:46.341Z,95.62
2019-04-01T09:37:46.381Z,95.62
2019-04-01T09:38:46.325Z,95.62
2019-04-01T09:39:46.309Z,101.25
2019-04-01T09:40:46.328Z,101.25
2019-04-01T09:41:46.290Z,101.25
2019-04-01T09:42:46.293Z,106.88
2019-04-01T09:43:46.300Z,106.88
2019-04-01T09:44:46.272Z,106.88
2019-04-01T09:45:46.242Z,112.50
2019-04-01T09:46:48.991Z,112.50
2019-04-01T09:47:46.266Z,112.50
2019-04-01T09:48:46.234Z,118.12
2019-04-01T09:49:46.210Z,118.12
2019-04-01T09:50:46.184Z,118.12
2019-04-01T09:51:48.823Z,118.12
2019-04-01T09:52:46.165Z,118.12
2019-04-01T09:53:46.175Z,123.75
2019-04-01T09:54:46.141Z,123.75
2019-04-01T09:55:46.136Z,123.75
2019-04-01T09:56:46.125Z,129.38
2019-04-01T09:57:46.110Z,129.38
2019-04-01T09:58:46.131Z,129.38
2019-04-01T09:59:46.093Z,135.00
2019-04-01T10:00:46.078Z,135.00
2019-04-01T10:01:46.068Z,140.62
2019-04-01T10:02:46.051Z,140.62
2019-04-01T10:03:46.064Z,146.25
2019-04-01T10:04:46.032Z,146.25
2019-04-01T10:05:46.052Z,151.88
2019-04-01T10:06:46.008Z,151.88
2019-04-01T10:07:46.153Z,157.50
2019-04-01T10:08:46.010Z,157.50
2019-04-01T10:09:45.995Z,157.50
2019-04-01T10:10:45.964Z,157.50
2019-04-01T10:11:45.952Z,163.12
2019-04-01T10:12:45.946Z,163.12
2019-04-01T10:13:45.957Z,168.75
2019-04-01T10:14:45.923Z,168.75
2019-04-01T10:15:45.906Z,174.38
2019-04-01T10:16:45.917Z,174.38
2019-04-01T10:17:45.883Z,180.00
2019-04-01T10:18:45.899Z,180.00
2019-04-01T10:19:45.861Z,185.62
2019-04-01T10:20:45.850Z,191.25
2019-04-01T10:21:45.846Z,191.25
2019-04-01T10:22:45.832Z,191.25
2019-04-01T10:23:45.859Z,196.88
2019-04-01T10:24:45.826Z,196.88
2019-04-01T10:25:45.798Z,196.88
2019-04-01T10:26:45.795Z,202.50
2019-04-01T10:27:45.773Z,202.50
2019-04-01T10:28:45.792Z,208.12
2019-04-01T10:29:45.753Z,208.12
2019-04-01T10:30:45.741Z,213.75
2019-04-01T10:31:45.729Z,213.75
2019-04-01T10:32:45.718Z,219.38
2019-04-01T10:33:45.710Z,219.38
2019-04-01T10:34:45.720Z,225.00
2019-04-01T10:35:45.687Z,230.62
2019-04-01T10:36:45.672Z,230.62
2019-04-01T10:37:45.695Z,236.25
2019-04-01T10:38:46.904Z,236.25
2019-04-01T10:39:45.667Z,236.25
2019-04-01T10:40:45.630Z,236.25
2019-04-01T10:41:45.616Z,241.88
2019-04-01T10:42:45.627Z,247.50
2019-04-01T10:43:45.593Z,247.50
2019-04-01T10:44:45.609Z,253.12
2019-04-01T10:45:45.601Z,258.75
2019-04-01T10:46:45.684Z,258.75
2019-04-01T10:47:45.603Z,264.38
2019-04-01T10:48:45.600Z,264.38
2019-04-01T10:49:45.646Z,270.00
2019-04-01T10:50:45.538Z,275.62
2019-04-01T10:51:45.539Z,281.25
2019-04-01T10:52:45.623Z,286.88
2019-04-01T10:53:45.509Z,286.88
2019-04-01T10:54:45.493Z,286.88
2019-04-01T10:55:45.469Z,292.50
2019-04-01T10:56:45.459Z,298.12
2019-04-01T10:57:45.444Z,298.12
2019-04-01T10:58:45.456Z,303.75
2019-04-01T10:59:45.481Z,309.38
2019-04-01T11:00:45.420Z,315.00
2019-04-01T11:01:45.484Z,320.62
2019-04-01T11:02:45.391Z,326.25
2019-04-01T11:03:45.463Z,331.88
2019-04-01T11:04:45.437Z,331.88
2019-04-01T11:05:45.354Z,331.88
2019-04-01T11:06:45.419Z,337.50
2019-04-01T11:07:45.352Z,337.50
2019-04-01T11:08:45.359Z,343.12
2019-04-01T11:09:45.325Z,348.75
2019-04-01T11:10:45.295Z,354.38
2019-04-01T11:11:45.284Z,354.38
2019-04-01T11:12:45.271Z,360.00
2019-04-01T11:13:45.287Z,360.00
2019-04-01T11:14:45.270Z,365.62
2019-04-01T11:15:45.288Z,365.62
2019-04-01T11:16:46.085Z,371.25
2019-04-01T11:17:45.219Z,365.62
2019-04-01T11:18:45.244Z,371.25
2019-04-01T11:19:45.234Z,376.88
2019-04-01T11:20:45.179Z,376.88
2019-04-01T11:21:45.172Z,376.88
2019-04-01T11:22:45.166Z,382.50
2019-04-01T11:23:45.199Z,382.50
2019-04-01T11:24:45.140Z,382.50
2019-04-01T11:25:45.149Z,382.50
2019-04-01T11:26:45.115Z,382.50
2019-04-01T11:27:45.107Z,388.12
2019-04-01T11:28:45.090Z,382.50
2019-04-01T11:29:45.082Z,382.50
2019-04-01T11:30:45.094Z,388.12
2019-04-01T11:31:45.120Z,393.75
2019-04-01T11:32:45.048Z,393.75
2019-04-01T11:33:45.103Z,393.75
2019-04-01T11:34:45.086Z,393.75
2019-04-01T11:35:46.017Z,393.75
2019-04-01T11:36:45.057Z,393.75
2019-04-01T11:37:45.012Z,393.75
2019-04-01T11:38:45.011Z,399.38
2019-04-01T11:39:45.012Z,399.38
2019-04-01T11:40:45.003Z,393.75
2019-04-01T11:41:44.959Z,399.38
2019-04-01T11:42:44.989Z,399.38
2019-04-01T11:43:45.000Z,405.00
2019-04-01T11:44:44.917Z,405.00
2019-04-01T11:45:44.949Z,399.38
2019-04-01T11:46:44.928Z,405.00
2019-04-01T11:47:44.900Z,405.00
2019-04-01T11:48:44.908Z,405.00
2019-04-01T11:49:44.928Z,405.00
2019-04-01T11:50:47.694Z,410.62
2019-04-01T11:51:44.854Z,410.62
2019-04-01T11:52:44.887Z,410.62
2019-04-01T11:53:44.820Z,410.62
2019-04-01T11:54:44.809Z,410.62
2019-04-01T11:55:44.823Z,416.25
2019-04-01T11:56:44.780Z,410.62
2019-04-01T11:57:44.785Z,410.62
2019-04-01T11:58:44.759Z,410.62
2019-04-01T11:59:44.746Z,416.25
2019-04-01T12:00:44.760Z,410.62
2019-04-01T12:01:44.730Z,416.25
2019-04-01T12:02:46.145Z,416.25
2019-04-01T12:03:44.746Z,410.62
2019-04-01T12:04:44.709Z,410.62
2019-04-01T12:05:44.688Z,421.88
2019-04-01T12:06:44.710Z,421.88
2019-04-01T12:07:44.660Z,421.88
2019-04-01T12:08:44.646Z,421.88
2019-04-01T12:09:44.648Z,421.88
2019-04-01T12:10:44.628Z,421.88
2019-04-01T12:11:44.638Z,421.88
2019-04-01T12:12:44.604Z,421.88
2019-04-01T12:13:44.600Z,421.88
2019-04-01T12:14:44.582Z,421.88
2019-04-01T12:15:44.586Z,421.88
2019-04-01T12:16:44.583Z,416.25
2019-04-01T12:17:44.553Z,416.25
2019-04-01T12:18:44.811Z,410.62
2019-04-01T12:19:44.539Z,410.62
2019-04-01T12:20:44.526Z,416.25
2019-04-01T12:21:44.536Z,416.25
2019-04-01T12:22:45.894Z,416.25
2019-04-01T12:23:44.480Z,421.88
2019-04-01T12:24:44.494Z,416.25
2019-04-01T12:25:44.458Z,416.25
2019-04-01T12:26:44.475Z,416.25
2019-04-01T12:27:45.293Z,416.25
2019-04-01T12:28:44.425Z,416.25
2019-04-01T12:29:48.000Z,416.25
2019-04-01T12:30:44.403Z,410.62
2019-04-01T12:31:44.428Z,405.00
2019-04-01T12:32:44.383Z,405.00
2019-04-01T12:33:44.379Z,410.62
2019-04-01T12:34:44.363Z,410.62
2019-04-01T12:35:44.360Z,410.62
2019-04-01T12:36:44.366Z,410.62
2019-04-01T12:37:45.834Z,410.62
2019-04-01T12:38:44.321Z,410.62
2019-04-01T12:39:44.306Z,410.62
2019-04-01T12:40:44.311Z,410.62
2019-04-01T12:41:44.318Z,405.00
2019-04-01T12:42:44.271Z,405.00
2019-04-01T12:43:44.262Z,399.38
2019-04-01T12:44:44.260Z,405.00
2019-04-01T12:45:44.240Z,405.00
2019-04-01T12:46:44.261Z,405.00
2019-04-01T12:47:44.216Z,399.38
2019-04-01T12:48:44.210Z,405.00
2019-04-01T12:49:44.197Z,405.00
2019-04-01T12:50:44.185Z,405.00
2019-04-01T12:51:44.179Z,399.38
2019-04-01T12:52:44.186Z,393.75
2019-04-01T12:53:44.153Z,405.00
2019-04-01T12:54:44.696Z,405.00
2019-04-01T12:55:45.041Z,399.38
2019-04-01T12:56:44.130Z,399.38
2019-04-01T12:57:44.134Z,393.75
2019-04-01T12:58:44.101Z,393.75
2019-04-01T12:59:45.822Z,399.38